Time;durP1;ratioP1;P1;durP2;ratioP2;P2;SDS_P1;SDS_P2;PMS_P1;PMS_P2;Temp;Humidity;BMP_temperature;BMP_pressure;BME280_temperature;BME280_humidity;BME280_pressure;Samples;Min_cycle;Max_cycle;Signal;HPM_P1;HPM_P2
2022/01/31 00:01:09;;;;;;;13.40;4.53;;;6.30;88.00;;;;;;5042356;28;20183;-87
2022/01/31 00:03:35;;;;;;;12.77;4.57;;;6.30;87.10;;;;;;5056806;28;20180;-85
2022/01/31 00:06:02;;;;;;;15.93;5.47;;;6.50;87.40;;;;;;5058192;28;20679;-86
2022/01/31 00:08:29;;;;;;;11.43;4.90;;;6.50;87.20;;;;;;5059964;28;20191;-86
2022/01/31 00:10:55;;;;;;;17.23;4.73;;;6.40;87.70;;;;;;5063823;28;20172;-88
2022/01/31 00:13:33;;;;;;;13.83;4.60;;;6.50;86.90;;;;;;5077277;28;20240;-84
2022/01/31 00:16:01;;;;;;;14.07;4.90;;;6.40;86.90;;;;;;5065216;28;20176;-86
2022/01/31 00:18:30;;;;;;;18.30;5.60;;;6.50;88.20;;;;;;5063625;28;20204;-85
2022/01/31 00:20:56;;;;;;;12.90;4.73;;;6.50;88.70;;;;;;5063095;28;20169;-86
2022/01/31 00:23:28;;;;;;;13.77;4.10;;;6.50;89.80;;;;;;5062495;28;20184;-86
2022/01/31 00:25:54;;;;;;;15.53;4.37;;;6.40;91.10;;;;;;5062469;28;20188;-86
2022/01/31 00:28:19;;;;;;;13.57;5.20;;;6.50;92.10;;;;;;5080086;28;20168;-85
2022/01/31 00:30:46;;;;;;;15.23;3.70;;;6.50;92.80;;;;;;5080200;28;20620;-87
2022/01/31 00:33:13;;;;;;;18.00;4.93;;;6.50;94.50;;;;;;5062791;28;20168;-86
2022/01/31 00:35:38;;;;;;;14.93;4.20;;;6.60;94.60;;;;;;5062076;28;20188;-86
2022/01/31 00:38:04;;;;;;;14.83;4.27;;;6.40;94.90;;;;;;5062630;28;20204;-86
2022/01/31 00:40:30;;;;;;;15.80;4.67;;;6.40;95.30;;;;;;5061774;28;20290;-85
2022/01/31 00:42:56;;;;;;;14.17;4.10;;;6.40;95.10;;;;;;5066654;28;20180;-86
2022/01/31 00:45:29;;;;;;;11.33;3.93;;;6.40;95.20;;;;;;5061743;28;20267;-85
2022/01/31 00:48:01;;;;;;;14.87;5.20;;;6.50;95.00;;;;;;5062761;28;20215;-87
2022/01/31 00:50:37;;;;;;;16.93;4.07;;;6.50;95.10;;;;;;5065314;28;20164;-86
2022/01/31 00:53:03;;;;;;;14.47;3.97;;;6.50;95.20;;;;;;5062633;28;20183;-86
2022/01/31 00:55:29;;;;;;;21.47;4.97;;;6.60;94.30;;;;;;5064127;28;20176;-85
2022/01/31 00:57:55;;;;;;;13.53;3.63;;;6.70;93.90;;;;;;5062338;28;20246;-88
2022/01/31 01:00:20;;;;;;;9.30;3.70;;;6.60;94.30;;;;;;5062145;28;20636;-87
2022/01/31 01:02:46;;;;;;;13.33;4.00;;;6.60;94.40;;;;;;5063474;28;20579;-87
2022/01/31 01:05:13;;;;;;;15.23;4.27;;;6.70;94.40;;;;;;5072547;28;20181;-86
2022/01/31 01:07:39;;;;;;;12.30;5.30;;;6.60;94.90;;;;;;5076274;28;20215;-85
2022/01/31 01:10:06;;;;;;;20.43;3.73;;;6.70;95.00;;;;;;5077134;28;20206;-88
2022/01/31 01:12:31;;;;;;;11.40;3.83;;;6.70;94.30;;;;;;5062766;28;20266;-86
2022/01/31 01:14:57;;;;;;;12.40;4.27;;;6.80;94.20;;;;;;5061009;28;20619;-86
2022/01/31 01:17:24;;;;;;;12.87;3.70;;;6.80;94.70;;;;;;5062243;28;20222;-87
2022/01/31 01:19:49;;;;;;;16.47;4.07;;;6.80;94.80;;;;;;5078849;28;20208;-86
2022/01/31 01:22:16;;;;;;;10.00;3.63;;;6.80;95.00;;;;;;5061438;28;20200;-87
2022/01/31 01:24:42;;;;;;;17.03;4.07;;;6.90;94.90;;;;;;5060928;28;20184;-88
2022/01/31 01:27:09;;;;;;;12.13;3.57;;;6.90;96.20;;;;;;5078664;28;20543;-86
2022/01/31 01:29:37;;;;;;;15.47;4.50;;;6.90;96.90;;;;;;5077585;28;20176;-87
2022/01/31 01:32:03;;;;;;;13.37;3.70;;;6.80;97.70;;;;;;5060919;28;20646;-83
2022/01/31 01:34:32;;;;;;;15.53;4.30;;;6.80;98.20;;;;;;5060710;28;20203;-85
2022/01/31 01:37:00;;;;;;;16.40;4.40;;;6.80;98.70;;;;;;5060219;28;20192;-85
2022/01/31 01:39:29;;;;;;;16.37;4.10;;;6.70;99.70;;;;;;5061890;28;20230;-86
2022/01/31 01:41:54;;;;;;;17.67;4.07;;;6.60;99.90;;;;;;5063751;28;20188;-85
2022/01/31 01:44:46;;;;;;;12.17;4.30;;;6.80;99.90;;;;;;5082301;28;20172;-85
2022/01/31 01:47:24;;;;;;;13.90;4.63;;;6.60;99.90;;;;;;5082976;28;20172;-85
2022/01/31 01:49:51;;;;;;;13.57;4.83;;;6.50;99.90;;;;;;5083172;28;20180;-86
2022/01/31 01:52:20;;;;;;;19.10;4.93;;;6.50;99.90;;;;;;5074943;28;20188;-86
2022/01/31 01:54:49;;;;;;;14.37;4.50;;;6.50;99.90;;;;;;5059950;28;20180;-86
2022/01/31 01:57:20;;;;;;;14.00;4.13;;;6.50;99.90;;;;;;5078954;28;20149;-86
2022/01/31 01:59:46;;;;;;;14.83;3.93;;;6.40;99.90;;;;;;5063064;28;20287;-86
2022/01/31 02:02:12;;;;;;;15.97;4.93;;;6.50;99.90;;;;;;5066230;28;20295;-88
2022/01/31 02:04:38;;;;;;;17.90;4.87;;;6.40;99.90;;;;;;5068789;28;20254;-86
2022/01/31 02:07:04;;;;;;;13.07;4.33;;;6.40;99.90;;;;;;5093944;28;20168;-87
2022/01/31 02:09:32;;;;;;;14.03;5.10;;;6.30;99.90;;;;;;5082491;28;20198;-83
2022/01/31 02:11:59;;;;;;;12.53;3.80;;;6.40;99.90;;;;;;5099584;28;20161;-87
2022/01/31 02:14:25;;;;;;;18.57;5.57;;;6.40;99.90;;;;;;5097910;28;20192;-87
2022/01/31 02:16:54;;;;;;;11.30;4.40;;;6.40;99.90;;;;;;5064153;28;20302;-87
2022/01/31 02:19:21;;;;;;;14.07;5.00;;;6.30;99.90;;;;;;5060584;28;20208;-87
2022/01/31 02:22:14;;;;;;;10.47;3.80;;;6.30;99.90;;;;;;5064629;28;20156;-88
2022/01/31 02:24:40;;;;;;;12.30;4.17;;;6.30;99.90;;;;;;5063997;28;20164;-86
2022/01/31 02:27:05;;;;;;;12.13;5.40;;;6.40;99.90;;;;;;5063564;28;20237;-85
2022/01/31 02:29:31;;;;;;;12.07;4.70;;;6.40;99.90;;;;;;5081950;28;20164;-86
2022/01/31 02:32:00;;;;;;;13.77;4.97;;;6.50;99.90;;;;;;5078254;28;20172;-87
2022/01/31 02:34:26;;;;;;;11.93;5.07;;;6.40;99.90;;;;;;5061994;28;20219;-87
2022/01/31 02:36:52;;;;;;;12.30;4.37;;;6.50;99.90;;;;;;5061001;28;20361;-87
2022/01/31 02:39:17;;;;;;;11.30;4.70;;;6.50;99.90;;;;;;5060635;28;20230;-87
2022/01/31 02:41:45;;;;;;;14.20;4.73;;;6.50;99.90;;;;;;5059588;28;20172;-88
2022/01/31 02:44:16;;;;;;;7.60;4.30;;;6.50;99.90;;;;;;5060062;28;20583;-88
2022/01/31 02:46:54;;;;;;;8.30;4.50;;;6.50;99.90;;;;;;5059303;28;20644;-85
2022/01/31 02:49:25;;;;;;;7.80;3.90;;;6.70;99.90;;;;;;5059619;28;20172;-86
2022/01/31 02:52:01;;;;;;;10.67;3.77;;;6.50;99.90;;;;;;5058185;28;20176;-86
2022/01/31 02:54:27;;;;;;;8.30;4.17;;;6.70;99.90;;;;;;5059197;28;20179;-87
2022/01/31 02:56:53;;;;;;;9.20;4.20;;;6.60;99.90;;;;;;5060971;28;20164;-87
2022/01/31 02:59:19;;;;;;;6.07;3.20;;;6.60;99.90;;;;;;5059889;28;20211;-86
2022/01/31 03:01:45;;;;;;;7.50;3.30;;;6.70;99.90;;;;;;5061258;28;20261;-86
2022/01/31 03:04:13;;;;;;;10.27;2.97;;;6.70;99.90;;;;;;5059588;28;20191;-87
2022/01/31 03:06:42;;;;;;;8.27;3.63;;;6.70;99.90;;;;;;5060694;28;20182;-87
2022/01/31 03:09:10;;;;;;;6.83;3.43;;;7.10;99.90;;;;;;5058043;28;20184;-86
2022/01/31 03:11:36;;;;;;;8.17;3.10;;;7.00;99.90;;;;;;5063786;28;20184;-87
2022/01/31 03:14:01;;;;;;;6.70;2.70;;;7.10;99.90;;;;;;5071447;28;20174;-86
2022/01/31 03:16:27;;;;;;;4.57;2.83;;;7.00;99.90;;;;;;5087683;28;20229;-85
2022/01/31 03:18:53;;;;;;;8.70;3.00;;;7.20;99.90;;;;;;5064597;28;20218;-87
2022/01/31 03:21:19;;;;;;;11.57;2.93;;;7.20;99.90;;;;;;5060293;28;20171;-86
2022/01/31 03:23:49;;;;;;;9.57;3.40;;;7.30;99.90;;;;;;5058153;28;20201;-87
2022/01/31 03:26:15;;;;;;;5.87;2.50;;;7.40;99.90;;;;;;5057866;28;20689;-86
2022/01/31 03:28:40;;;;;;;6.83;3.00;;;7.50;99.90;;;;;;5059377;28;20184;-86
2022/01/31 03:31:06;;;;;;;8.80;3.10;;;7.80;99.90;;;;;;5076841;28;20231;-86
2022/01/31 03:33:33;;;;;;;7.80;2.63;;;7.70;99.90;;;;;;5076817;28;20655;-86
2022/01/31 03:35:59;;;;;;;10.27;2.80;;;7.60;99.90;;;;;;5058845;28;20188;-86
2022/01/31 03:38:25;;;;;;;8.10;2.77;;;7.70;99.90;;;;;;5076316;28;20319;-86
2022/01/31 03:40:50;;;;;;;11.17;3.67;;;7.70;99.90;;;;;;5058370;28;20271;-87
2022/01/31 03:43:16;;;;;;;11.67;3.00;;;7.80;99.90;;;;;;5061124;28;20550;-85
2022/01/31 03:45:42;;;;;;;7.70;2.50;;;7.90;99.90;;;;;;5059770;28;20192;-85
2022/01/31 03:48:09;;;;;;;14.70;2.73;;;7.90;99.90;;;;;;5058601;28;20182;-86
2022/01/31 03:50:34;;;;;;;11.60;3.87;;;7.90;99.90;;;;;;5058621;28;20654;-84
2022/01/31 03:53:00;;;;;;;7.67;2.03;;;8.00;98.00;;;;;;5058038;28;20172;-85
2022/01/31 03:55:26;;;;;;;8.73;2.40;;;8.10;97.20;;;;;;5057613;28;20616;-86
2022/01/31 03:57:52;;;;;;;9.33;2.60;;;8.10;96.80;;;;;;5078278;28;20180;-85
2022/01/31 04:00:18;;;;;;;10.97;2.27;;;8.10;95.90;;;;;;5060862;28;20176;-85
2022/01/31 04:02:44;;;;;;;8.47;2.97;;;8.10;95.50;;;;;;5060331;28;20187;-86
2022/01/31 04:05:10;;;;;;;12.83;3.43;;;8.00;94.50;;;;;;5059933;28;20180;-85
2022/01/31 04:07:36;;;;;;;6.50;2.03;;;8.00;94.40;;;;;;5057605;28;20177;-86
2022/01/31 04:10:04;;;;;;;7.77;2.50;;;7.90;94.30;;;;;;5075364;28;20212;-85
2022/01/31 04:12:31;;;;;;;6.90;2.30;;;7.90;94.30;;;;;;5059127;28;20183;-85
2022/01/31 04:14:56;;;;;;;8.23;1.90;;;7.90;93.60;;;;;;5059338;28;20180;-86
2022/01/31 04:17:24;;;;;;;7.20;2.40;;;7.80;92.30;;;;;;5058338;28;20272;-85
2022/01/31 04:19:51;;;;;;;7.80;2.20;;;7.80;91.90;;;;;;5058036;28;20275;-86
2022/01/31 04:22:19;;;;;;;8.77;2.40;;;7.80;91.70;;;;;;5077773;28;20168;-86
2022/01/31 04:24:53;;;;;;;9.03;2.10;;;7.80;90.70;;;;;;5059982;28;20188;-84
2022/01/31 04:27:19;;;;;;;8.93;2.17;;;7.70;91.30;;;;;;5068979;28;20168;-85
2022/01/31 04:29:46;;;;;;;7.97;1.90;;;7.60;91.30;;;;;;5073183;28;20187;-84
2022/01/31 04:32:12;;;;;;;7.13;2.07;;;7.60;91.80;;;;;;5072746;28;20188;-86
2022/01/31 04:34:38;;;;;;;6.83;2.30;;;7.60;91.10;;;;;;5072667;28;20231;-86
2022/01/31 04:37:04;;;;;;;7.57;2.60;;;7.50;91.60;;;;;;5072629;28;20180;-87
2022/01/31 04:39:31;;;;;;;7.33;2.50;;;7.60;91.30;;;;;;5063212;28;20219;-88
2022/01/31 04:42:03;;;;;;;6.40;1.77;;;7.60;91.30;;;;;;5072194;28;20196;-85
2022/01/31 04:45:05;;;;;;;5.97;1.80;;;7.60;90.80;;;;;;5063990;28;20184;-87
2022/01/31 04:47:31;;;;;;;5.83;2.00;;;7.60;90.60;;;;;;5063429;28;20168;-86
2022/01/31 04:49:59;;;;;;;8.07;1.97;;;7.70;90.00;;;;;;5079706;28;20198;-85
2022/01/31 04:52:25;;;;;;;9.20;2.70;;;7.60;90.20;;;;;;5094931;28;20164;-86
2022/01/31 04:54:51;;;;;;;7.67;1.97;;;7.60;90.00;;;;;;5075062;28;20176;-86
2022/01/31 04:57:17;;;;;;;7.63;1.77;;;7.60;88.10;;;;;;5085488;28;20170;-87
2022/01/31 04:59:43;;;;;;;12.00;2.63;;;7.80;88.00;;;;;;5082565;28;20200;-87
2022/01/31 05:02:10;;;;;;;7.57;2.00;;;7.60;88.20;;;;;;5082461;28;20171;-87
2022/01/31 05:04:37;;;;;;;7.10;1.93;;;7.60;87.30;;;;;;5083052;28;20164;-87
2022/01/31 05:07:16;;;;;;;10.17;2.40;;;7.70;86.80;;;;;;5070418;28;20222;-87
2022/01/31 05:09:50;;;;;;;9.97;2.40;;;7.60;85.60;;;;;;5062431;28;20191;-87
2022/01/31 05:12:49;;;;;;;5.90;1.73;;;7.60;85.60;;;;;;5062975;28;20255;-87
2022/01/31 05:15:19;;;;;;;6.00;1.93;;;7.70;85.40;;;;;;5061197;28;20176;-87
2022/01/31 05:17:47;;;;;;;9.20;2.43;;;7.70;84.70;;;;;;5061291;28;20168;-87
2022/01/31 05:20:13;;;;;;;10.73;2.80;;;7.70;83.90;;;;;;5085546;28;20180;-86
2022/01/31 05:22:39;;;;;;;5.33;1.63;;;7.70;83.30;;;;;;5083288;28;20168;-85
2022/01/31 05:25:05;;;;;;;10.67;2.60;;;7.70;81.20;;;;;;5082837;28;20172;-86
2022/01/31 05:27:30;;;;;;;9.03;2.13;;;7.70;83.30;;;;;;5099518;28;20172;-86
2022/01/31 05:29:59;;;;;;;11.57;2.20;;;7.70;82.50;;;;;;5090422;28;20651;-87
2022/01/31 05:32:28;;;;;;;7.10;2.13;;;7.80;79.80;;;;;;5077757;28;20165;-87
2022/01/31 05:34:54;;;;;;;12.00;2.30;;;7.70;78.60;;;;;;5060558;28;20172;-87
2022/01/31 05:37:20;;;;;;;11.00;2.20;;;7.70;77.00;;;;;;5078971;28;20183;-87
2022/01/31 05:39:46;;;;;;;9.90;2.20;;;7.70;75.60;;;;;;5061002;28;20224;-86
2022/01/31 05:42:12;;;;;;;7.93;2.77;;;7.90;75.50;;;;;;5062482;28;20192;-88
2022/01/31 05:44:38;;;;;;;8.17;2.10;;;7.80;73.20;;;;;;5061984;28;20176;-85
2022/01/31 05:47:05;;;;;;;9.97;2.73;;;7.70;73.70;;;;;;5081010;28;20168;-87
2022/01/31 05:49:34;;;;;;;8.30;2.10;;;7.80;73.20;;;;;;5062934;28;20184;-87
2022/01/31 05:52:04;;;;;;;9.93;2.10;;;7.80;72.90;;;;;;5064964;28;20210;-86
2022/01/31 05:54:31;;;;;;;9.87;2.20;;;7.70;72.30;;;;;;5061065;28;20213;-86
2022/01/31 05:56:58;;;;;;;8.47;1.93;;;8.00;73.10;;;;;;5060792;28;20207;-87
2022/01/31 05:59:27;;;;;;;10.33;2.30;;;7.70;73.30;;;;;;5061594;28;20212;-88
2022/01/31 06:01:53;;;;;;;10.30;2.40;;;7.70;74.20;;;;;;5060861;28;20218;-86
2022/01/31 06:04:18;;;;;;;12.27;2.77;;;7.70;75.10;;;;;;5059597;28;20187;-88
2022/01/31 06:06:44;;;;;;;11.67;2.30;;;7.70;74.20;;;;;;5058968;28;20646;-86
2022/01/31 06:09:10;;;;;;;12.67;2.90;;;7.90;73.30;;;;;;5092817;28;20191;-86
2022/01/31 06:11:38;;;;;;;7.83;2.60;;;7.90;75.40;;;;;;5060874;28;20628;-88
2022/01/31 06:14:07;;;;;;;13.00;3.13;;;7.70;72.60;;;;;;5060102;28;20226;-87
2022/01/31 06:16:33;;;;;;;10.80;2.60;;;7.60;71.70;;;;;;5060186;28;20530;-87
2022/01/31 06:18:59;;;;;;;8.40;2.97;;;7.70;71.70;;;;;;5078779;28;20207;-87
2022/01/31 06:21:25;;;;;;;9.00;2.20;;;7.90;71.40;;;;;;5059441;28;20172;-86
2022/01/31 06:23:52;;;;;;;12.43;2.70;;;7.70;68.90;;;;;;5061858;28;20241;-86
2022/01/31 06:26:17;;;;;;;9.97;2.43;;;7.60;71.20;;;;;;5059662;28;20268;-85
2022/01/31 06:28:43;;;;;;;9.63;2.40;;;7.80;70.30;;;;;;5059895;28;20237;-86
2022/01/31 06:31:09;;;;;;;9.47;2.67;;;7.70;67.10;;;;;;5060193;28;20175;-87
2022/01/31 06:33:35;;;;;;;11.63;2.70;;;7.70;67.70;;;;;;5060525;28;20286;-85
2022/01/31 06:36:01;;;;;;;9.93;2.63;;;8.00;66.30;;;;;;5059096;28;20663;-86
2022/01/31 06:38:28;;;;;;;8.77;2.20;;;7.70;64.50;;;;;;5078571;28;20202;-86
2022/01/31 06:40:54;;;;;;;13.23;2.93;;;7.60;64.60;;;;;;5064329;28;20192;-85
2022/01/31 06:43:20;;;;;;;12.07;3.47;;;7.60;66.20;;;;;;5080150;28;20164;-85
2022/01/31 06:45:46;;;;;;;13.47;3.13;;;7.70;65.50;;;;;;5077478;28;20175;-86
2022/01/31 06:48:12;;;;;;;9.73;2.80;;;7.70;65.00;;;;;;5059417;28;20180;-85
2022/01/31 06:50:41;;;;;;;9.40;2.47;;;7.70;66.40;;;;;;5058445;28;20191;-86
2022/01/31 06:53:06;;;;;;;11.97;2.97;;;7.70;66.60;;;;;;5062208;28;20176;-87
2022/01/31 06:55:34;;;;;;;12.83;2.90;;;7.60;65.70;;;;;;5060305;28;20184;-85
2022/01/31 06:58:01;;;;;;;11.27;2.93;;;7.90;66.60;;;;;;5058947;28;20188;-84
2022/01/31 07:00:27;;;;;;;10.10;2.80;;;7.60;64.80;;;;;;5076873;28;20179;-85
2022/01/31 07:02:54;;;;;;;8.07;2.40;;;7.60;64.20;;;;;;5076014;28;20251;-83
2022/01/31 07:05:21;;;;;;;8.33;2.20;;;7.60;62.00;;;;;;5057593;28;20222;-84
2022/01/31 07:07:47;;;;;;;10.30;2.00;;;7.60;62.80;;;;;;5080308;28;20251;-86
2022/01/31 07:10:12;;;;;;;11.07;2.97;;;7.70;59.80;;;;;;5058452;28;20202;-86
2022/01/31 07:12:40;;;;;;;12.27;2.73;;;7.70;59.20;;;;;;5058392;28;20663;-85
2022/01/31 07:15:09;;;;;;;9.33;2.00;;;7.70;58.70;;;;;;5059899;28;20215;-84
2022/01/31 07:17:36;;;;;;;12.60;3.17;;;7.70;59.00;;;;;;5058117;28;20152;-87
2022/01/31 07:20:09;;;;;;;16.03;3.10;;;7.70;59.70;;;;;;5057501;28;20277;-87
2022/01/31 07:22:37;;;;;;;9.60;2.50;;;7.70;59.00;;;;;;5056107;28;20179;-88
2022/01/31 07:25:21;;;;;;;10.83;2.57;;;7.70;58.70;;;;;;5045088;28;20191;-86
2022/01/31 07:27:47;;;;;;;10.63;2.33;;;7.70;58.80;;;;;;5038551;28;20197;-85
2022/01/31 07:30:13;;;;;;;11.60;2.60;;;7.80;58.60;;;;;;5040549;28;20173;-85
2022/01/31 07:32:42;;;;;;;12.97;3.10;;;7.60;57.60;;;;;;5039843;28;20172;-86
2022/01/31 07:35:14;;;;;;;11.90;3.10;;;7.70;57.40;;;;;;5039619;28;20219;-85
2022/01/31 07:37:40;;;;;;;10.43;3.30;;;7.70;57.90;;;;;;5049302;28;20195;-85
2022/01/31 07:40:06;;;;;;;9.43;2.43;;;7.70;56.70;;;;;;5046133;28;20668;-87
2022/01/31 07:42:35;;;;;;;15.50;2.83;;;7.70;56.20;;;;;;5039506;28;20188;-87
2022/01/31 07:45:00;;;;;;;11.50;3.07;;;7.80;55.00;;;;;;5037963;28;20237;-87
2022/01/31 07:47:26;;;;;;;15.40;2.87;;;7.80;53.30;;;;;;5039105;28;20227;-87
2022/01/31 07:49:52;;;;;;;13.10;3.20;;;7.70;54.00;;;;;;5053065;28;20184;-87
2022/01/31 07:52:18;;;;;;;10.63;2.53;;;7.80;53.30;;;;;;5060160;28;20255;-86
2022/01/31 07:54:44;;;;;;;12.10;2.87;;;7.70;52.20;;;;;;5060567;28;20183;-86
2022/01/31 07:57:10;;;;;;;12.73;2.70;;;7.70;52.70;;;;;;5059224;28;20255;-87
2022/01/31 07:59:37;;;;;;;9.87;2.67;;;7.70;52.80;;;;;;5076863;28;20272;-87
2022/01/31 08:02:03;;;;;;;8.67;2.80;;;7.70;51.90;;;;;;5075307;28;20175;-88
2022/01/31 08:04:29;;;;;;;11.67;3.30;;;7.70;51.30;;;;;;5079784;28;20270;-86
2022/01/31 08:06:54;;;;;;;14.87;3.47;;;7.70;50.10;;;;;;5075976;28;20196;-87
2022/01/31 08:09:20;;;;;;;8.40;2.90;;;7.70;52.40;;;;;;5076425;28;20195;-86
2022/01/31 08:11:46;;;;;;;10.43;4.00;;;7.60;52.20;;;;;;5079668;28;20190;-87
2022/01/31 08:14:16;;;;;;;8.90;2.13;;;7.70;52.10;;;;;;5080262;28;20211;-85
2022/01/31 08:16:42;;;;;;;11.27;3.00;;;7.60;51.80;;;;;;5075662;28;20176;-86
2022/01/31 08:19:09;;;;;;;12.73;3.10;;;7.70;52.00;;;;;;5076679;28;20211;-85
2022/01/31 08:21:36;;;;;;;12.87;2.90;;;7.70;51.00;;;;;;5060017;28;20177;-86
2022/01/31 08:24:02;;;;;;;5.83;2.03;;;7.90;51.30;;;;;;5079877;28;20190;-88
2022/01/31 08:26:28;;;;;;;12.87;2.90;;;7.70;51.10;;;;;;5110999;28;20176;-85
2022/01/31 08:28:57;;;;;;;13.50;3.07;;;7.80;51.60;;;;;;5100190;28;20178;-86
2022/01/31 08:31:28;;;;;;;12.13;3.43;;;7.70;51.00;;;;;;5103604;28;20166;-85
2022/01/31 08:36:42;;;;;;;10.00;2.17;;;7.60;51.80;;;;;;5108369;28;20210;-86
2022/01/31 08:39:28;;;;;;;14.40;2.63;;;7.60;51.70;;;;;;5090010;28;20279;-84
2022/01/31 08:42:00;;;;;;;11.50;2.53;;;7.60;52.20;;;;;;5102335;28;20204;-87
2022/01/31 08:44:26;;;;;;;9.83;2.47;;;7.60;50.10;;;;;;5109853;28;20215;-87
2022/01/31 08:46:52;;;;;;;13.13;2.83;;;7.70;50.10;;;;;;5062219;28;20176;-87
2022/01/31 08:49:18;;;;;;;10.90;2.20;;;7.60;49.30;;;;;;5062299;28;20176;-86
2022/01/31 08:51:45;;;;;;;9.27;2.60;;;7.60;49.30;;;;;;5093548;28;20226;-85
2022/01/31 08:54:11;;;;;;;11.60;3.30;;;7.60;49.20;;;;;;5082790;28;20168;-86
2022/01/31 08:56:44;;;;;;;9.77;3.17;;;7.70;49.70;;;;;;5081268;28;20181;-88
2022/01/31 08:59:18;;;;;;;13.70;2.63;;;7.60;49.00;;;;;;5080297;28;20303;-86
2022/01/31 09:05:18;;;;;;;11.83;2.60;;;7.50;48.10;;;;;;5087028;28;20172;-87
2022/01/31 09:07:44;;;;;;;15.40;3.17;;;7.60;47.60;;;;;;5071110;28;20176;-86
2022/01/31 09:10:10;;;;;;;12.20;3.33;;;7.60;46.90;;;;;;5079820;28;20222;-87
2022/01/31 09:13:30;;;;;;;14.37;2.90;;;7.80;46.00;;;;;;5067244;28;20168;-87
2022/01/31 09:15:57;;;;;;;15.73;3.20;;;7.50;46.20;;;;;;5062047;28;20183;-86
2022/01/31 09:18:23;;;;;;;11.17;2.80;;;7.60;47.30;;;;;;5061445;28;20314;-86
2022/01/31 09:20:51;;;;;;;10.80;2.97;;;7.50;45.80;;;;;;5061466;28;20236;-86
2022/01/31 09:23:18;;;;;;;10.90;3.00;;;7.50;47.40;;;;;;5061864;28;20180;-86
2022/01/31 09:25:45;;;;;;;10.13;2.93;;;7.40;45.10;;;;;;5078434;28;20294;-87
2022/01/31 09:28:11;;;;;;;11.67;3.03;;;7.50;44.70;;;;;;5079333;28;20175;-86
2022/01/31 09:30:38;;;;;;;11.83;4.50;;;7.60;43.90;;;;;;5062284;28;20176;-86
2022/01/31 09:33:05;;;;;;;12.93;3.37;;;7.50;42.70;;;;;;5081456;28;20169;-84
2022/01/31 09:35:33;;;;;;;9.97;2.57;;;7.50;43.50;;;;;;5061121;28;20188;-86
2022/01/31 09:38:00;;;;;;;10.23;3.33;;;7.50;40.30;;;;;;5062066;28;20188;-87
2022/01/31 09:40:26;;;;;;;13.30;3.03;;;7.50;41.00;;;;;;5044706;28;20175;-86
2022/01/31 09:43:29;;;;;;;13.17;2.77;;;7.50;41.10;;;;;;5061065;28;20255;-85
2022/01/31 09:48:39;;;;;;;10.43;3.10;;;7.50;39.90;;;;;;5087886;28;20178;-85
2022/01/31 09:51:13;;;;;;;21.20;3.27;;;7.60;39.20;;;;;;5089105;28;20176;-87
2022/01/31 09:53:48;;;;;;;10.63;2.93;;;7.60;37.90;;;;;;5073460;28;20176;-86
2022/01/31 09:56:17;;;;;;;7.70;2.30;;;7.50;38.80;;;;;;5065788;28;20213;-85
2022/01/31 09:58:43;;;;;;;14.80;3.73;;;7.50;37.40;;;;;;5060754;28;20244;-86
2022/01/31 10:01:14;;;;;;;13.80;3.27;;;7.50;37.40;;;;;;5062322;28;20173;-87
2022/01/31 10:03:54;;;;;;;14.17;3.07;;;7.50;33.20;;;;;;5061469;28;20538;-85
2022/01/31 10:06:35;;;;;;;9.83;2.47;;;7.40;37.20;;;;;;5062588;28;20176;-85
2022/01/31 10:09:13;;;;;;;11.50;2.90;;;7.50;36.40;;;;;;5078639;28;20252;-87
2022/01/31 10:11:51;;;;;;;9.73;2.70;;;7.10;55.90;;;;;;5059849;28;20176;-84
2022/01/31 10:17:28;;;;;;;13.80;3.50;;;6.60;69.00;;;;;;5077786;28;20164;-85
2022/01/31 10:19:56;;;;;;;11.37;3.03;;;6.90;66.50;;;;;;5056568;28;20348;-86
2022/01/31 10:23:04;;;;;;;14.87;3.87;;;7.00;64.90;;;;;;5051343;28;20189;-85
2022/01/31 10:25:44;;;;;;;9.00;3.00;;;7.00;58.70;;;;;;5042687;28;20183;-87
2022/01/31 10:28:19;;;;;;;13.03;3.10;;;7.00;54.80;;;;;;5040591;28;20279;-86
2022/01/31 10:30:47;;;;;;;17.40;3.47;;;7.20;46.70;;;;;;5039229;28;20191;-85
2022/01/31 10:33:15;;;;;;;17.43;3.40;;;7.40;42.20;;;;;;5038304;28;20267;-85
2022/01/31 10:35:42;;;;;;;16.90;3.23;;;7.30;40.30;;;;;;5041210;28;20193;-85
2022/01/31 10:38:15;;;;;;;13.03;3.37;;;7.40;38.70;;;;;;5040161;28;20581;-85
2022/01/31 10:56:56;;;;;;;10.53;3.20;;;7.60;30.50;;;;;;5057909;28;20247;-87
2022/01/31 10:59:26;;;;;;;10.83;2.70;;;7.50;18.10;;;;;;5040596;28;20209;-84
2022/01/31 11:01:57;;;;;;;12.23;2.90;;;7.50;16.20;;;;;;5040073;28;20531;-86
2022/01/31 11:04:28;;;;;;;12.30;3.00;;;7.50;19.20;;;;;;5058600;28;20184;-86
2022/01/31 11:07:07;;;;;;;16.50;3.17;;;7.40;18.00;;;;;;5041474;28;20168;-87
2022/01/31 11:09:34;;;;;;;13.37;2.83;;;7.70;17.70;;;;;;5041417;28;20188;-87
2022/01/31 11:12:01;;;;;;;15.60;3.47;;;7.50;18.10;;;;;;5045694;28;20230;-87
2022/01/31 11:14:38;;;;;;;13.53;3.37;;;7.40;16.70;;;;;;5041426;28;20173;-84
2022/01/31 11:17:16;;;;;;;16.10;3.23;;;7.40;17.70;;;;;;5060310;28;20169;-84
2022/01/31 11:19:59;;;;;;;13.23;3.53;;;7.50;18.60;;;;;;5048184;28;20213;-88
2022/01/31 11:22:32;;;;;;;10.83;3.20;;;7.50;16.00;;;;;;5079580;28;20254;-86
2022/01/31 11:25:08;;;;;;;14.27;2.93;;;7.60;14.80;;;;;;5078996;28;20176;-86
2022/01/31 11:27:37;;;;;;;11.10;3.63;;;7.60;11.70;;;;;;5080757;28;20191;-86
2022/01/31 11:30:04;;;;;;;10.50;3.33;;;7.50;15.60;;;;;;5097923;28;20172;-86
2022/01/31 11:32:29;;;;;;;11.40;3.00;;;7.60;11.70;;;;;;5078994;28;20176;-85
2022/01/31 11:34:56;;;;;;;13.73;3.23;;;7.50;11.40;;;;;;5079667;28;20183;-87
2022/01/31 11:37:25;;;;;;;18.33;3.57;;;7.50;14.10;;;;;;5079931;28;20172;-87
2022/01/31 11:40:05;;;;;;;12.97;3.40;;;7.50;12.40;;;;;;5098595;28;20283;-86
2022/01/31 11:42:31;;;;;;;16.23;3.90;;;7.60;16.10;;;;;;5080007;28;20644;-85
2022/01/31 11:45:11;;;;;;;19.53;4.07;;;7.50;20.10;;;;;;5078561;28;20176;-86
2022/01/31 11:47:38;;;;;;;12.63;3.00;;;7.50;21.90;;;;;;5078479;28;20273;-84
2022/01/31 11:50:09;;;;;;;10.90;2.90;;;7.40;30.60;;;;;;5081366;28;20161;-86
2022/01/31 11:52:55;;;;;;;14.70;3.67;;;7.10;43.30;;;;;;5083839;28;20183;-87
2022/01/31 11:55:23;;;;;;;17.50;3.57;;;7.00;51.40;;;;;;5089035;28;20168;-86
2022/01/31 11:57:53;;;;;;;14.60;3.47;;;6.90;59.90;;;;;;5096243;28;20218;-87
2022/01/31 12:00:21;;;;;;;10.20;2.40;;;6.70;68.10;;;;;;5095050;28;20655;-87
2022/01/31 12:02:51;;;;;;;9.43;3.67;;;6.50;69.40;;;;;;5096136;28;20180;-87
2022/01/31 12:05:49;;;;;;;12.57;3.33;;;6.50;65.00;;;;;;5088367;28;20244;-89
2022/01/31 12:08:19;;;;;;;9.17;3.47;;;6.60;66.20;;;;;;5084350;28;20174;-85
2022/01/31 12:11:03;;;;;;;15.03;3.47;;;6.70;62.20;;;;;;5101294;28;20187;-85
2022/01/31 12:14:11;;;;;;;10.60;2.87;;;6.70;60.40;;;;;;5093625;28;20180;-85
2022/01/31 12:22:05;;;;;;;13.73;3.13;;;6.80;59.60;;;;;;5083938;28;20208;-84
2022/01/31 12:24:39;;;;;;;10.83;3.07;;;6.80;55.40;;;;;;5099243;28;20199;-87
2022/01/31 12:27:07;;;;;;;22.07;4.63;;;6.80;53.70;;;;;;5082549;28;20184;-87
2022/01/31 12:29:39;;;;;;;14.57;4.23;;;6.80;53.50;;;;;;5077459;28;20191;-86
2022/01/31 12:32:23;;;;;;;16.33;4.23;;;6.90;52.90;;;;;;5068246;28;20284;-86
2022/01/31 12:34:56;;;;;;;16.47;4.40;;;7.00;49.60;;;;;;5094743;28;20167;-84
2022/01/31 12:37:57;;;;;;;20.47;4.53;;;7.00;43.80;;;;;;5092872;28;20184;-86
2022/01/31 12:40:32;;;;;;;16.13;4.67;;;7.10;43.10;;;;;;5086648;28;20175;-85
2022/01/31 12:43:13;;;;;;;16.77;4.47;;;7.00;37.80;;;;;;5062031;28;20195;-85
2022/01/31 12:45:43;;;;;;;15.30;3.10;;;7.10;39.20;;;;;;5062691;28;20179;-86
2022/01/31 12:48:20;;;;;;;10.10;3.07;;;7.10;38.20;;;;;;5064904;28;20173;-87
2022/01/31 12:50:52;;;;;;;16.60;4.07;;;7.10;35.10;;;;;;5081510;28;20594;-87
2022/01/31 12:53:24;;;;;;;17.37;3.77;;;7.20;34.00;;;;;;5062171;28;20246;-86
2022/01/31 12:56:07;;;;;;;19.07;4.70;;;7.20;34.30;;;;;;5062682;28;20182;-86
2022/01/31 12:58:46;;;;;;;16.50;4.63;;;7.20;34.70;;;;;;5062002;28;20203;-84
2022/01/31 13:01:19;;;;;;;14.87;4.43;;;7.20;34.10;;;;;;5062835;28;20699;-85
2022/01/31 13:03:47;;;;;;;16.63;4.37;;;7.20;35.30;;;;;;5063274;28;20263;-88
2022/01/31 13:06:34;;;;;;;15.63;3.80;;;7.20;39.20;;;;;;5061922;28;20222;-88
2022/01/31 13:09:03;;;;;;;21.43;5.17;;;7.00;46.20;;;;;;5063513;28;20176;-87
2022/01/31 13:11:29;;;;;;;12.73;3.80;;;6.90;50.70;;;;;;5080234;28;20204;-87
2022/01/31 13:14:09;;;;;;;14.77;3.97;;;6.80;55.50;;;;;;5081057;28;20161;-85
2022/01/31 13:16:45;;;;;;;13.43;3.57;;;6.80;58.10;;;;;;5064118;28;20172;-85
2022/01/31 13:19:20;;;;;;;18.63;4.20;;;6.80;57.10;;;;;;5061138;28;20219;-85
2022/01/31 13:21:47;;;;;;;19.03;4.60;;;6.80;55.70;;;;;;5075361;28;20164;-86
2022/01/31 13:24:14;;;;;;;25.57;6.13;;;6.80;51.30;;;;;;5080895;28;20568;-85
2022/01/31 13:26:59;;;;;;;17.67;5.60;;;6.90;48.70;;;;;;5081757;28;20172;-86
2022/01/31 13:29:48;;;;;;;20.30;5.00;;;6.90;43.40;;;;;;5080211;28;20195;-86
2022/01/31 13:32:24;;;;;;;23.97;5.33;;;6.90;44.00;;;;;;5065890;28;20175;-84
2022/01/31 13:35:00;;;;;;;24.17;5.67;;;6.90;40.50;;;;;;5057301;28;20173;-85
2022/01/31 13:37:39;;;;;;;21.13;5.40;;;6.90;39.60;;;;;;5061169;28;20241;-84